sensor_id;sensor_type;location;lat;lon;timestamp;P1;durP1;ratioP1;P2;durP2;ratioP2
77326;SDS011;66399;52.322;20.980;2022-12-29T00:03:34;10.10;;;3.80;;
77326;SDS011;66399;52.322;20.980;2022-12-29T00:07:41;8.30;;;3.70;;
77326;SDS011;66399;52.322;20.980;2022-12-29T00:11:48;6.80;;;2.90;;
77326;SDS011;66399;52.322;20.980;2022-12-29T00:15:55;8.70;;;3.70;;
77326;SDS011;66399;52.322;20.980;2022-12-29T00:20:02;8.00;;;3.70;;
77326;SDS011;66399;52.322;20.980;2022-12-29T00:24:27;9.90;;;3.90;;
77326;SDS011;66399;52.322;20.980;2022-12-29T00:28:51;7.30;;;3.30;;
77326;SDS011;66399;52.322;20.980;2022-12-29T00:33:16;8.30;;;3.80;;
77326;SDS011;66399;52.322;20.980;2022-12-29T00:37:42;5.90;;;2.90;;
77326;SDS011;66399;52.322;20.980;2022-12-29T00:42:10;18.80;;;8.60;;
77326;SDS011;66399;52.322;20.980;2022-12-29T00:46:35;10.20;;;3.90;;
77326;SDS011;66399;52.322;20.980;2022-12-29T00:50:42;6.20;;;2.80;;
77326;SDS011;66399;52.322;20.980;2022-12-29T00:54:49;6.70;;;3.20;;
77326;SDS011;66399;52.322;20.980;2022-12-29T00:58:56;8.10;;;3.50;;
77326;SDS011;66399;52.322;20.980;2022-12-29T01:03:06;7.70;;;3.60;;
77326;SDS011;66399;52.322;20.980;2022-12-29T01:07:13;7.90;;;3.30;;
77326;SDS011;66399;52.322;20.980;2022-12-29T01:11:21;7.80;;;3.50;;
77326;SDS011;66399;52.322;20.980;2022-12-29T01:15:27;5.60;;;2.70;;
77326;SDS011;66399;52.322;20.980;2022-12-29T01:19:34;9.30;;;3.20;;
77326;SDS011;66399;52.322;20.980;2022-12-29T01:23:41;7.20;;;3.20;;
77326;SDS011;66399;52.322;20.980;2022-12-29T01:27:48;7.70;;;3.10;;
77326;SDS011;66399;52.322;20.980;2022-12-29T01:31:54;6.30;;;2.50;;
77326;SDS011;66399;52.322;20.980;2022-12-29T01:36:01;6.90;;;3.00;;
77326;SDS011;66399;52.322;20.980;2022-12-29T01:40:10;6.00;;;3.10;;
77326;SDS011;66399;52.322;20.980;2022-12-29T01:48:53;4.80;;;2.30;;
77326;SDS011;66399;52.322;20.980;2022-12-29T01:53:04;7.50;;;3.10;;
77326;SDS011;66399;52.322;20.980;2022-12-29T01:57:15;9.10;;;2.80;;
77326;SDS011;66399;52.322;20.980;2022-12-29T02:05:32;5.70;;;2.40;;
77326;SDS011;66399;52.322;20.980;2022-12-29T02:09:45;6.40;;;2.90;;
77326;SDS011;66399;52.322;20.980;2022-12-29T02:13:53;7.20;;;3.00;;
77326;SDS011;66399;52.322;20.980;2022-12-29T02:18:07;6.70;;;3.20;;
77326;SDS011;66399;52.322;20.980;2022-12-29T02:22:25;5.80;;;2.90;;
77326;SDS011;66399;52.322;20.980;2022-12-29T02:26:44;6.10;;;2.50;;
77326;SDS011;66399;52.322;20.980;2022-12-29T02:31:06;7.40;;;2.60;;
77326;SDS011;66399;52.322;20.980;2022-12-29T02:35:23;4.50;;;2.60;;
77326;SDS011;66399;52.322;20.980;2022-12-29T02:39:40;6.50;;;2.80;;
77326;SDS011;66399;52.322;20.980;2022-12-29T02:43:56;5.90;;;2.70;;
77326;SDS011;66399;52.322;20.980;2022-12-29T02:48:10;4.90;;;2.60;;
77326;SDS011;66399;52.322;20.980;2022-12-29T02:52:25;6.20;;;2.80;;
77326;SDS011;66399;52.322;20.980;2022-12-29T02:56:35;6.80;;;3.20;;
77326;SDS011;66399;52.322;20.980;2022-12-29T03:00:43;6.10;;;2.80;;
77326;SDS011;66399;52.322;20.980;2022-12-29T03:05:10;7.70;;;2.80;;
77326;SDS011;66399;52.322;20.980;2022-12-29T03:09:26;6.70;;;2.90;;
77326;SDS011;66399;52.322;20.980;2022-12-29T03:13:42;5.20;;;2.40;;
77326;SDS011;66399;52.322;20.980;2022-12-29T03:18:12;7.70;;;3.00;;
77326;SDS011;66399;52.322;20.980;2022-12-29T03:22:27;5.40;;;2.50;;
77326;SDS011;66399;52.322;20.980;2022-12-29T03:30:44;5.70;;;2.60;;
77326;SDS011;66399;52.322;20.980;2022-12-29T03:34:52;6.60;;;3.30;;
77326;SDS011;66399;52.322;20.980;2022-12-29T03:39:01;5.80;;;2.80;;
77326;SDS011;66399;52.322;20.980;2022-12-29T03:43:15;6.20;;;2.70;;
77326;SDS011;66399;52.322;20.980;2022-12-29T03:47:23;6.00;;;2.60;;
77326;SDS011;66399;52.322;20.980;2022-12-29T03:51:30;6.70;;;2.50;;
77326;SDS011;66399;52.322;20.980;2022-12-29T03:55:37;6.20;;;2.70;;
77326;SDS011;66399;52.322;20.980;2022-12-29T03:59:44;5.10;;;2.40;;
77326;SDS011;66399;52.322;20.980;2022-12-29T04:03:50;5.00;;;2.70;;
77326;SDS011;66399;52.322;20.980;2022-12-29T04:07:57;5.50;;;2.80;;
77326;SDS011;66399;52.322;20.980;2022-12-29T04:12:04;6.60;;;2.50;;
77326;SDS011;66399;52.322;20.980;2022-12-29T04:16:11;5.70;;;2.40;;
77326;SDS011;66399;52.322;20.980;2022-12-29T04:20:18;5.50;;;2.70;;
77326;SDS011;66399;52.322;20.980;2022-12-29T04:28:47;5.80;;;2.40;;
77326;SDS011;66399;52.322;20.980;2022-12-29T04:32:54;5.40;;;2.20;;
77326;SDS011;66399;52.322;20.980;2022-12-29T04:37:01;6.10;;;2.70;;
77326;SDS011;66399;52.322;20.980;2022-12-29T04:41:08;9.00;;;2.90;;
77326;SDS011;66399;52.322;20.980;2022-12-29T04:45:14;5.80;;;2.90;;
77326;SDS011;66399;52.322;20.980;2022-12-29T04:49:21;5.30;;;3.00;;
77326;SDS011;66399;52.322;20.980;2022-12-29T04:53:28;8.20;;;2.80;;
77326;SDS011;66399;52.322;20.980;2022-12-29T04:57:34;6.50;;;2.50;;
77326;SDS011;66399;52.322;20.980;2022-12-29T05:01:41;5.70;;;2.60;;
77326;SDS011;66399;52.322;20.980;2022-12-29T05:05:48;5.90;;;2.80;;
77326;SDS011;66399;52.322;20.980;2022-12-29T05:09:57;8.50;;;2.40;;
77326;SDS011;66399;52.322;20.980;2022-12-29T05:14:04;6.30;;;2.60;;
77326;SDS011;66399;52.322;20.980;2022-12-29T05:18:11;7.90;;;3.60;;
77326;SDS011;66399;52.322;20.980;2022-12-29T05:22:18;5.90;;;2.70;;
77326;SDS011;66399;52.322;20.980;2022-12-29T05:26:25;8.60;;;3.40;;
77326;SDS011;66399;52.322;20.980;2022-12-29T05:30:31;7.90;;;3.10;;
77326;SDS011;66399;52.322;20.980;2022-12-29T05:34:38;7.00;;;3.00;;
77326;SDS011;66399;52.322;20.980;2022-12-29T05:38:45;8.30;;;3.00;;
77326;SDS011;66399;52.322;20.980;2022-12-29T05:42:51;7.30;;;2.90;;
77326;SDS011;66399;52.322;20.980;2022-12-29T05:46:58;6.30;;;3.00;;
77326;SDS011;66399;52.322;20.980;2022-12-29T05:51:05;7.10;;;3.30;;
77326;SDS011;66399;52.322;20.980;2022-12-29T05:55:12;6.70;;;3.10;;
77326;SDS011;66399;52.322;20.980;2022-12-29T05:59:21;8.70;;;3.40;;
77326;SDS011;66399;52.322;20.980;2022-12-29T06:03:28;11.30;;;3.70;;
77326;SDS011;66399;52.322;20.980;2022-12-29T06:07:35;8.80;;;3.70;;
77326;SDS011;66399;52.322;20.980;2022-12-29T06:11:41;9.90;;;3.40;;
77326;SDS011;66399;52.322;20.980;2022-12-29T06:15:49;7.90;;;3.40;;
77326;SDS011;66399;52.322;20.980;2022-12-29T06:19:56;7.20;;;3.10;;
77326;SDS011;66399;52.322;20.980;2022-12-29T06:24:03;7.50;;;3.80;;
77326;SDS011;66399;52.322;20.980;2022-12-29T06:28:10;7.10;;;3.70;;
77326;SDS011;66399;52.322;20.980;2022-12-29T06:32:17;7.00;;;3.30;;
77326;SDS011;66399;52.322;20.980;2022-12-29T06:36:24;10.20;;;3.10;;
77326;SDS011;66399;52.322;20.980;2022-12-29T06:40:31;8.30;;;3.40;;
77326;SDS011;66399;52.322;20.980;2022-12-29T06:44:38;9.10;;;3.50;;
77326;SDS011;66399;52.322;20.980;2022-12-29T06:48:44;8.00;;;3.90;;
77326;SDS011;66399;52.322;20.980;2022-12-29T06:52:51;7.10;;;3.20;;
77326;SDS011;66399;52.322;20.980;2022-12-29T06:56:58;7.80;;;3.10;;
77326;SDS011;66399;52.322;20.980;2022-12-29T07:01:05;8.50;;;3.80;;
77326;SDS011;66399;52.322;20.980;2022-12-29T07:05:12;9.30;;;3.60;;
77326;SDS011;66399;52.322;20.980;2022-12-29T07:09:19;8.60;;;3.70;;
77326;SDS011;66399;52.322;20.980;2022-12-29T07:13:25;7.20;;;3.50;;
77326;SDS011;66399;52.322;20.980;2022-12-29T07:17:32;8.30;;;3.70;;
77326;SDS011;66399;52.322;20.980;2022-12-29T07:21:39;7.00;;;3.40;;
77326;SDS011;66399;52.322;20.980;2022-12-29T07:25:48;5.50;;;3.00;;
77326;SDS011;66399;52.322;20.980;2022-12-29T07:29:55;9.00;;;3.30;;
77326;SDS011;66399;52.322;20.980;2022-12-29T07:34:02;7.60;;;3.20;;
77326;SDS011;66399;52.322;20.980;2022-12-29T07:38:08;7.90;;;3.00;;
77326;SDS011;66399;52.322;20.980;2022-12-29T07:42:15;7.10;;;3.00;;
77326;SDS011;66399;52.322;20.980;2022-12-29T07:46:22;5.10;;;2.60;;
77326;SDS011;66399;52.322;20.980;2022-12-29T07:50:48;8.50;;;3.40;;
77326;SDS011;66399;52.322;20.980;2022-12-29T07:54:56;4.10;;;1.40;;
77326;SDS011;66399;52.322;20.980;2022-12-29T07:59:03;5.40;;;3.00;;
77326;SDS011;66399;52.322;20.980;2022-12-29T08:03:10;5.90;;;2.80;;
77326;SDS011;66399;52.322;20.980;2022-12-29T08:07:17;6.00;;;2.70;;
77326;SDS011;66399;52.322;20.980;2022-12-29T08:11:23;6.80;;;2.90;;
77326;SDS011;66399;52.322;20.980;2022-12-29T08:15:30;7.60;;;2.90;;
77326;SDS011;66399;52.322;20.980;2022-12-29T08:19:37;6.20;;;2.80;;
77326;SDS011;66399;52.322;20.980;2022-12-29T08:23:46;6.80;;;2.70;;
77326;SDS011;66399;52.322;20.980;2022-12-29T08:27:53;5.20;;;3.10;;
77326;SDS011;66399;52.322;20.980;2022-12-29T08:32:00;6.80;;;3.00;;
77326;SDS011;66399;52.322;20.980;2022-12-29T08:36:07;5.20;;;2.60;;
77326;SDS011;66399;52.322;20.980;2022-12-29T08:40:15;7.70;;;3.60;;
77326;SDS011;66399;52.322;20.980;2022-12-29T08:44:22;8.40;;;3.00;;
77326;SDS011;66399;52.322;20.980;2022-12-29T08:48:29;8.20;;;3.30;;
77326;SDS011;66399;52.322;20.980;2022-12-29T08:52:35;6.90;;;3.30;;
77326;SDS011;66399;52.322;20.980;2022-12-29T08:56:42;5.20;;;2.70;;
77326;SDS011;66399;52.322;20.980;2022-12-29T09:00:51;7.80;;;2.90;;
77326;SDS011;66399;52.322;20.980;2022-12-29T09:04:58;6.30;;;3.10;;
77326;SDS011;66399;52.322;20.980;2022-12-29T09:09:05;7.20;;;2.90;;
77326;SDS011;66399;52.322;20.980;2022-12-29T09:13:12;6.70;;;2.80;;
77326;SDS011;66399;52.322;20.980;2022-12-29T09:17:19;7.10;;;2.80;;
77326;SDS011;66399;52.322;20.980;2022-12-29T09:21:44;6.30;;;3.10;;
77326;SDS011;66399;52.322;20.980;2022-12-29T09:25:51;7.10;;;3.00;;
77326;SDS011;66399;52.322;20.980;2022-12-29T09:29:58;5.30;;;2.70;;
77326;SDS011;66399;52.322;20.980;2022-12-29T09:34:05;5.60;;;2.60;;
77326;SDS011;66399;52.322;20.980;2022-12-29T09:38:11;6.30;;;2.60;;
77326;SDS011;66399;52.322;20.980;2022-12-29T09:42:22;6.40;;;2.60;;
77326;SDS011;66399;52.322;20.980;2022-12-29T09:46:33;7.30;;;2.80;;
77326;SDS011;66399;52.322;20.980;2022-12-29T09:50:43;7.00;;;3.20;;
77326;SDS011;66399;52.322;20.980;2022-12-29T09:54:53;6.00;;;3.00;;
77326;SDS011;66399;52.322;20.980;2022-12-29T09:59:13;9.40;;;3.50;;
77326;SDS011;66399;52.322;20.980;2022-12-29T10:03:26;6.70;;;2.60;;
77326;SDS011;66399;52.322;20.980;2022-12-29T10:07:43;9.70;;;3.40;;
77326;SDS011;66399;52.322;20.980;2022-12-29T10:12:01;7.60;;;3.30;;
77326;SDS011;66399;52.322;20.980;2022-12-29T10:16:15;6.20;;;2.90;;
77326;SDS011;66399;52.322;20.980;2022-12-29T10:20:28;8.20;;;3.00;;
77326;SDS011;66399;52.322;20.980;2022-12-29T10:24:40;7.00;;;3.10;;
77326;SDS011;66399;52.322;20.980;2022-12-29T10:28:50;5.90;;;3.10;;
77326;SDS011;66399;52.322;20.980;2022-12-29T10:33:01;7.50;;;3.10;;
77326;SDS011;66399;52.322;20.980;2022-12-29T10:37:14;7.20;;;3.00;;
77326;SDS011;66399;52.322;20.980;2022-12-29T10:41:38;7.50;;;2.80;;
77326;SDS011;66399;52.322;20.980;2022-12-29T10:45:49;7.60;;;3.00;;
77326;SDS011;66399;52.322;20.980;2022-12-29T10:49:57;6.20;;;2.70;;
77326;SDS011;66399;52.322;20.980;2022-12-29T10:54:06;5.20;;;2.80;;
77326;SDS011;66399;52.322;20.980;2022-12-29T10:58:20;6.00;;;3.20;;
77326;SDS011;66399;52.322;20.980;2022-12-29T11:02:37;6.60;;;2.80;;
77326;SDS011;66399;52.322;20.980;2022-12-29T11:06:56;5.70;;;3.00;;
77326;SDS011;66399;52.322;20.980;2022-12-29T11:11:04;6.00;;;2.80;;
77326;SDS011;66399;52.322;20.980;2022-12-29T11:15:14;8.30;;;3.40;;
77326;SDS011;66399;52.322;20.980;2022-12-29T11:19:21;8.70;;;3.70;;
77326;SDS011;66399;52.322;20.980;2022-12-29T11:23:31;7.00;;;2.80;;
77326;SDS011;66399;52.322;20.980;2022-12-29T11:27:39;8.20;;;3.30;;
77326;SDS011;66399;52.322;20.980;2022-12-29T11:31:59;9.50;;;3.40;;
77326;SDS011;66399;52.322;20.980;2022-12-29T11:36:31;7.60;;;3.00;;
77326;SDS011;66399;52.322;20.980;2022-12-29T11:40:40;7.00;;;3.00;;
77326;SDS011;66399;52.322;20.980;2022-12-29T11:44:48;7.60;;;3.30;;
77326;SDS011;66399;52.322;20.980;2022-12-29T11:48:56;8.60;;;3.70;;
77326;SDS011;66399;52.322;20.980;2022-12-29T11:53:05;7.00;;;3.20;;
77326;SDS011;66399;52.322;20.980;2022-12-29T11:57:19;7.50;;;3.40;;
77326;SDS011;66399;52.322;20.980;2022-12-29T12:01:28;7.90;;;3.30;;
77326;SDS011;66399;52.322;20.980;2022-12-29T12:05:41;7.60;;;3.90;;
77326;SDS011;66399;52.322;20.980;2022-12-29T12:09:57;8.70;;;3.40;;
77326;SDS011;66399;52.322;20.980;2022-12-29T12:14:14;8.40;;;3.40;;
77326;SDS011;66399;52.322;20.980;2022-12-29T12:18:28;5.80;;;3.00;;
77326;SDS011;66399;52.322;20.980;2022-12-29T12:22:43;6.40;;;3.00;;
77326;SDS011;66399;52.322;20.980;2022-12-29T12:26:58;7.80;;;3.60;;
77326;SDS011;66399;52.322;20.980;2022-12-29T12:31:17;5.70;;;3.10;;
77326;SDS011;66399;52.322;20.980;2022-12-29T12:35:30;6.70;;;2.80;;
77326;SDS011;66399;52.322;20.980;2022-12-29T12:39:47;9.20;;;3.00;;
77326;SDS011;66399;52.322;20.980;2022-12-29T12:44:09;7.40;;;3.30;;
77326;SDS011;66399;52.322;20.980;2022-12-29T12:48:29;6.60;;;3.10;;
77326;SDS011;66399;52.322;20.980;2022-12-29T12:53:00;7.60;;;3.10;;
77326;SDS011;66399;52.322;20.980;2022-12-29T12:57:22;8.60;;;3.70;;
77326;SDS011;66399;52.322;20.980;2022-12-29T13:01:45;5.40;;;2.80;;
77326;SDS011;66399;52.322;20.980;2022-12-29T13:06:06;5.60;;;2.90;;
77326;SDS011;66399;52.322;20.980;2022-12-29T13:10:34;8.20;;;3.30;;
77326;SDS011;66399;52.322;20.980;2022-12-29T13:14:57;6.70;;;2.90;;
77326;SDS011;66399;52.322;20.980;2022-12-29T13:19:15;5.80;;;3.20;;
77326;SDS011;66399;52.322;20.980;2022-12-29T13:23:31;6.90;;;3.30;;
77326;SDS011;66399;52.322;20.980;2022-12-29T13:27:44;6.40;;;3.00;;
77326;SDS011;66399;52.322;20.980;2022-12-29T13:32:00;7.40;;;4.00;;
77326;SDS011;66399;52.322;20.980;2022-12-29T13:36:23;10.60;;;3.60;;
77326;SDS011;66399;52.322;20.980;2022-12-29T13:40:36;9.80;;;3.70;;
77326;SDS011;66399;52.322;20.980;2022-12-29T13:44:47;10.50;;;3.20;;
77326;SDS011;66399;52.322;20.980;2022-12-29T13:48:58;8.50;;;3.30;;
77326;SDS011;66399;52.322;20.980;2022-12-29T13:53:14;6.80;;;2.90;;
77326;SDS011;66399;52.322;20.980;2022-12-29T13:57:26;8.40;;;3.30;;
77326;SDS011;66399;52.322;20.980;2022-12-29T14:01:46;9.10;;;3.30;;
77326;SDS011;66399;52.322;20.980;2022-12-29T14:06:11;6.30;;;3.00;;
77326;SDS011;66399;52.322;20.980;2022-12-29T14:14:33;7.40;;;3.50;;
77326;SDS011;66399;52.322;20.980;2022-12-29T14:18:43;8.20;;;3.30;;
77326;SDS011;66399;52.322;20.980;2022-12-29T14:22:57;7.60;;;3.30;;
77326;SDS011;66399;52.322;20.980;2022-12-29T14:40:30;7.40;;;3.00;;
77326;SDS011;66399;52.322;20.980;2022-12-29T14:44:45;9.60;;;3.10;;
77326;SDS011;66399;52.322;20.980;2022-12-29T14:48:56;8.00;;;4.00;;
77326;SDS011;66399;52.322;20.980;2022-12-29T14:53:05;8.20;;;3.50;;
77326;SDS011;66399;52.322;20.980;2022-12-29T14:57:35;7.90;;;3.00;;
77326;SDS011;66399;52.322;20.980;2022-12-29T15:01:45;7.10;;;3.10;;
77326;SDS011;66399;52.322;20.980;2022-12-29T15:05:57;7.10;;;3.40;;
77326;SDS011;66399;52.322;20.980;2022-12-29T15:10:13;8.10;;;3.10;;
77326;SDS011;66399;52.322;20.980;2022-12-29T15:14:32;7.80;;;3.70;;
77326;SDS011;66399;52.322;20.980;2022-12-29T15:18:41;8.60;;;3.40;;
77326;SDS011;66399;52.322;20.980;2022-12-29T15:22:47;7.70;;;3.70;;
77326;SDS011;66399;52.322;20.980;2022-12-29T15:26:57;8.00;;;3.30;;
77326;SDS011;66399;52.322;20.980;2022-12-29T15:31:12;7.20;;;3.40;;
77326;SDS011;66399;52.322;20.980;2022-12-29T15:35:25;5.80;;;3.00;;
77326;SDS011;66399;52.322;20.980;2022-12-29T15:39:36;8.00;;;3.40;;
77326;SDS011;66399;52.322;20.980;2022-12-29T15:43:48;8.70;;;3.20;;
77326;SDS011;66399;52.322;20.980;2022-12-29T15:48:01;6.90;;;3.30;;
77326;SDS011;66399;52.322;20.980;2022-12-29T15:52:09;9.00;;;3.40;;
77326;SDS011;66399;52.322;20.980;2022-12-29T15:56:22;8.00;;;3.50;;
77326;SDS011;66399;52.322;20.980;2022-12-29T16:00:30;11.20;;;4.30;;
77326;SDS011;66399;52.322;20.980;2022-12-29T16:04:39;6.80;;;3.10;;
77326;SDS011;66399;52.322;20.980;2022-12-29T16:09:07;6.20;;;3.00;;
77326;SDS011;66399;52.322;20.980;2022-12-29T16:13:23;8.00;;;3.00;;
77326;SDS011;66399;52.322;20.980;2022-12-29T16:17:41;7.50;;;3.20;;
77326;SDS011;66399;52.322;20.980;2022-12-29T16:21:51;5.60;;;3.20;;
77326;SDS011;66399;52.322;20.980;2022-12-29T16:25:58;8.20;;;3.50;;
77326;SDS011;66399;52.322;20.980;2022-12-29T16:30:07;7.70;;;3.80;;
77326;SDS011;66399;52.322;20.980;2022-12-29T16:34:23;7.10;;;3.50;;
77326;SDS011;66399;52.322;20.980;2022-12-29T16:42:45;6.90;;;3.30;;
77326;SDS011;66399;52.322;20.980;2022-12-29T16:47:00;8.70;;;3.70;;
77326;SDS011;66399;52.322;20.980;2022-12-29T16:51:11;7.30;;;3.50;;
77326;SDS011;66399;52.322;20.980;2022-12-29T16:55:21;7.40;;;3.50;;
77326;SDS011;66399;52.322;20.980;2022-12-29T16:59:30;10.30;;;3.80;;
77326;SDS011;66399;52.322;20.980;2022-12-29T17:03:41;9.20;;;4.10;;
77326;SDS011;66399;52.322;20.980;2022-12-29T17:07:51;10.20;;;4.10;;
77326;SDS011;66399;52.322;20.980;2022-12-29T17:12:05;7.50;;;3.80;;
77326;SDS011;66399;52.322;20.980;2022-12-29T17:16:14;9.00;;;3.50;;
77326;SDS011;66399;52.322;20.980;2022-12-29T17:20:22;9.40;;;4.00;;
77326;SDS011;66399;52.322;20.980;2022-12-29T17:24:30;9.20;;;3.80;;
77326;SDS011;66399;52.322;20.980;2022-12-29T17:28:37;7.30;;;3.80;;
77326;SDS011;66399;52.322;20.980;2022-12-29T17:32:46;6.90;;;3.70;;
77326;SDS011;66399;52.322;20.980;2022-12-29T17:36:56;8.90;;;4.20;;
77326;SDS011;66399;52.322;20.980;2022-12-29T17:41:03;10.10;;;3.90;;
77326;SDS011;66399;52.322;20.980;2022-12-29T17:45:16;7.00;;;3.30;;
77326;SDS011;66399;52.322;20.980;2022-12-29T17:49:24;8.40;;;3.70;;
77326;SDS011;66399;52.322;20.980;2022-12-29T17:53:32;9.70;;;4.20;;
77326;SDS011;66399;52.322;20.980;2022-12-29T17:57:38;8.90;;;3.90;;
77326;SDS011;66399;52.322;20.980;2022-12-29T18:01:46;9.20;;;4.20;;
77326;SDS011;66399;52.322;20.980;2022-12-29T18:05:53;7.40;;;3.40;;
77326;SDS011;66399;52.322;20.980;2022-12-29T18:10:00;8.20;;;4.00;;
77326;SDS011;66399;52.322;20.980;2022-12-29T18:14:09;9.30;;;4.50;;
77326;SDS011;66399;52.322;20.980;2022-12-29T18:18:18;7.20;;;3.70;;
77326;SDS011;66399;52.322;20.980;2022-12-29T18:22:26;7.00;;;3.60;;
77326;SDS011;66399;52.322;20.980;2022-12-29T18:26:33;11.50;;;4.20;;
77326;SDS011;66399;52.322;20.980;2022-12-29T18:30:40;8.60;;;3.90;;
77326;SDS011;66399;52.322;20.980;2022-12-29T18:34:47;9.80;;;4.00;;
77326;SDS011;66399;52.322;20.980;2022-12-29T18:38:53;10.10;;;4.60;;
77326;SDS011;66399;52.322;20.980;2022-12-29T18:43:00;7.50;;;4.10;;
77326;SDS011;66399;52.322;20.980;2022-12-29T18:47:07;9.10;;;4.50;;
77326;SDS011;66399;52.322;20.980;2022-12-29T18:51:15;11.30;;;4.80;;
77326;SDS011;66399;52.322;20.980;2022-12-29T18:55:24;9.30;;;4.40;;
77326;SDS011;66399;52.322;20.980;2022-12-29T18:59:32;9.60;;;4.10;;
77326;SDS011;66399;52.322;20.980;2022-12-29T19:03:39;10.30;;;4.50;;
77326;SDS011;66399;52.322;20.980;2022-12-29T19:07:46;8.60;;;4.20;;
77326;SDS011;66399;52.322;20.980;2022-12-29T19:11:53;10.20;;;4.60;;
77326;SDS011;66399;52.322;20.980;2022-12-29T19:16:00;8.80;;;4.60;;
77326;SDS011;66399;52.322;20.980;2022-12-29T19:20:09;10.10;;;4.90;;
77326;SDS011;66399;52.322;20.980;2022-12-29T19:24:29;9.80;;;4.60;;
77326;SDS011;66399;52.322;20.980;2022-12-29T19:28:36;11.00;;;5.30;;
77326;SDS011;66399;52.322;20.980;2022-12-29T19:32:43;11.70;;;5.00;;
77326;SDS011;66399;52.322;20.980;2022-12-29T19:36:53;12.20;;;5.30;;
77326;SDS011;66399;52.322;20.980;2022-12-29T19:41:00;11.70;;;4.60;;
77326;SDS011;66399;52.322;20.980;2022-12-29T19:45:12;9.10;;;4.70;;
77326;SDS011;66399;52.322;20.980;2022-12-29T19:49:19;8.90;;;4.90;;
77326;SDS011;66399;52.322;20.980;2022-12-29T19:53:26;11.70;;;5.30;;
77326;SDS011;66399;52.322;20.980;2022-12-29T19:57:33;10.70;;;5.00;;
77326;SDS011;66399;52.322;20.980;2022-12-29T20:01:40;14.30;;;5.90;;
77326;SDS011;66399;52.322;20.980;2022-12-29T20:05:48;17.10;;;7.30;;
77326;SDS011;66399;52.322;20.980;2022-12-29T20:09:55;32.40;;;13.30;;
77326;SDS011;66399;52.322;20.980;2022-12-29T20:14:02;48.70;;;20.00;;
77326;SDS011;66399;52.322;20.980;2022-12-29T20:18:08;44.10;;;19.40;;
77326;SDS011;66399;52.322;20.980;2022-12-29T20:22:17;24.10;;;14.80;;
77326;SDS011;66399;52.322;20.980;2022-12-29T20:26:27;10.50;;;5.30;;
77326;SDS011;66399;52.322;20.980;2022-12-29T20:30:34;16.10;;;7.60;;
77326;SDS011;66399;52.322;20.980;2022-12-29T20:34:41;7.40;;;5.10;;
77326;SDS011;66399;52.322;20.980;2022-12-29T20:38:49;14.00;;;6.60;;
77326;SDS011;66399;52.322;20.980;2022-12-29T20:42:56;14.10;;;7.30;;
77326;SDS011;66399;52.322;20.980;2022-12-29T20:47:03;15.30;;;7.70;;
77326;SDS011;66399;52.322;20.980;2022-12-29T20:51:11;25.50;;;11.10;;
77326;SDS011;66399;52.322;20.980;2022-12-29T20:55:18;12.40;;;6.70;;
77326;SDS011;66399;52.322;20.980;2022-12-29T20:59:24;13.80;;;6.60;;
77326;SDS011;66399;52.322;20.980;2022-12-29T21:03:32;11.40;;;5.00;;
77326;SDS011;66399;52.322;20.980;2022-12-29T21:07:39;9.80;;;5.00;;
77326;SDS011;66399;52.322;20.980;2022-12-29T21:11:46;10.10;;;4.60;;
77326;SDS011;66399;52.322;20.980;2022-12-29T21:15:55;12.90;;;5.00;;
77326;SDS011;66399;52.322;20.980;2022-12-29T21:20:04;12.50;;;5.60;;
77326;SDS011;66399;52.322;20.980;2022-12-29T21:24:11;10.50;;;4.80;;
77326;SDS011;66399;52.322;20.980;2022-12-29T21:28:18;9.50;;;4.60;;
77326;SDS011;66399;52.322;20.980;2022-12-29T21:32:26;13.90;;;6.10;;
77326;SDS011;66399;52.322;20.980;2022-12-29T21:36:33;10.20;;;5.10;;
77326;SDS011;66399;52.322;20.980;2022-12-29T21:40:40;11.70;;;4.30;;
77326;SDS011;66399;52.322;20.980;2022-12-29T21:44:47;9.60;;;4.50;;
77326;SDS011;66399;52.322;20.980;2022-12-29T21:53:16;9.70;;;4.50;;
77326;SDS011;66399;52.322;20.980;2022-12-29T21:57:23;8.60;;;4.20;;
77326;SDS011;66399;52.322;20.980;2022-12-29T22:01:47;9.10;;;3.90;;
77326;SDS011;66399;52.322;20.980;2022-12-29T22:06:11;10.20;;;4.50;;
77326;SDS011;66399;52.322;20.980;2022-12-29T22:15:01;10.70;;;6.00;;
77326;SDS011;66399;52.322;20.980;2022-12-29T22:19:09;11.60;;;5.30;;
77326;SDS011;66399;52.322;20.980;2022-12-29T22:23:16;9.80;;;4.30;;
77326;SDS011;66399;52.322;20.980;2022-12-29T22:27:23;8.30;;;4.70;;
77326;SDS011;66399;52.322;20.980;2022-12-29T22:31:30;8.10;;;3.90;;
77326;SDS011;66399;52.322;20.980;2022-12-29T22:35:37;8.60;;;4.30;;
77326;SDS011;66399;52.322;20.980;2022-12-29T22:39:45;8.20;;;4.50;;
77326;SDS011;66399;52.322;20.980;2022-12-29T22:43:52;9.50;;;4.40;;
77326;SDS011;66399;52.322;20.980;2022-12-29T22:47:59;10.50;;;4.60;;
77326;SDS011;66399;52.322;20.980;2022-12-29T22:52:06;8.00;;;4.40;;
77326;SDS011;66399;52.322;20.980;2022-12-29T22:56:13;9.90;;;5.00;;
77326;SDS011;66399;52.322;20.980;2022-12-29T23:00:20;9.20;;;4.20;;
77326;SDS011;66399;52.322;20.980;2022-12-29T23:04:26;8.30;;;4.40;;
77326;SDS011;66399;52.322;20.980;2022-12-29T23:08:54;8.20;;;4.20;;
77326;SDS011;66399;52.322;20.980;2022-12-29T23:13:01;8.10;;;4.30;;
77326;SDS011;66399;52.322;20.980;2022-12-29T23:17:09;9.20;;;3.90;;
77326;SDS011;66399;52.322;20.980;2022-12-29T23:21:16;7.80;;;3.80;;
77326;SDS011;66399;52.322;20.980;2022-12-29T23:25:23;9.60;;;4.50;;
77326;SDS011;66399;52.322;20.980;2022-12-29T23:29:30;9.50;;;5.20;;
77326;SDS011;66399;52.322;20.980;2022-12-29T23:33:37;9.90;;;4.10;;
77326;SDS011;66399;52.322;20.980;2022-12-29T23:37:44;7.70;;;4.20;;
77326;SDS011;66399;52.322;20.980;2022-12-29T23:41:51;10.20;;;4.30;;
77326;SDS011;66399;52.322;20.980;2022-12-29T23:45:58;8.90;;;4.10;;
77326;SDS011;66399;52.322;20.980;2022-12-29T23:50:11;11.30;;;5.30;;
77326;SDS011;66399;52.322;20.980;2022-12-29T23:54:18;8.90;;;4.50;;
77326;SDS011;66399;52.322;20.980;2022-12-29T23:58:25;9.10;;;4.00;;
